Jordan Village, Connecticut
Current Conditions -  °F | °C
As of 8:56 PM on Monday 24 Nov 2014 (Local Time) from KGON Reporting Station
Haze Haze  
Wind Chill: 55°   Ceiling: 1200
Heat Index: 55°   Visibility: 4mi
Dew Point: 55°   Wind: 6mph
Humidity: 100%   Direction: 240°WSW
Pressure: 29.73"   Gusts: NA
Location:  41.3583°N, 72.1558°W
Report Text: KGON 250156Z 24005KT 4SM BR BKN012 13/13 A2973 RMK AO2 SLP066 T01280128 $
Loading
Personal Weather Stations






























Interactive Weather Map New forecast layout! Learn more

10-Day Weather Forecast

Advertisements
Track Severe Weather on mobile